createdAt,value
2022-08-09T00:02:28.294Z,96.93
2022-08-09T00:05:03.591Z,96.79
2022-08-09T00:07:44.416Z,95.56
2022-08-09T00:10:18.002Z,94.37
2022-08-09T00:12:52.601Z,93.31
2022-08-09T00:15:35.353Z,94.13
2022-08-09T00:18:10.802Z,94.93
2022-08-09T00:20:42.374Z,95.25
2022-08-09T00:23:55.324Z,95.18
2022-08-09T00:26:05.391Z,94.60
2022-08-09T00:28:34.449Z,94.97
2022-08-09T00:31:50.428Z,94.96
2022-08-09T00:33:51.979Z,94.06
2022-08-09T00:36:20.428Z,94.43
2022-08-09T00:38:50.659Z,94.72
2022-08-09T00:44:10.934Z,96.58
2022-08-09T00:44:13.884Z,95.91
2022-08-09T00:46:57.871Z,95.92
2022-08-09T00:49:32.451Z,95.90
2022-08-09T00:52:05.394Z,95.67
2022-08-09T00:54:36.391Z,95.49
2022-08-09T00:57:10.122Z,95.83
2022-08-09T00:59:46.382Z,95.77
2022-08-09T01:02:21.341Z,96.06
2022-08-09T01:05:03.478Z,96.92
2022-08-09T01:08:00.049Z,97.29
2022-08-09T01:10:31.612Z,95.83
2022-08-09T01:13:03.373Z,96.37
2022-08-09T01:15:41.055Z,95.95
2022-08-09T01:18:30.247Z,97.23
2022-08-09T01:21:14.140Z,98.70
2022-08-09T01:24:01.902Z,99.32
2022-08-09T01:26:52.969Z,99.44
2022-08-09T01:29:29.420Z,99.14
2022-08-09T01:32:31.790Z,99.57
2022-08-09T01:34:59.880Z,100.00
2022-08-09T01:38:06.316Z,100.00
2022-08-09T01:40:28.630Z,99.81
2022-08-09T01:42:56.997Z,100.00
2022-08-09T01:45:25.250Z,100.00
2022-08-09T01:47:52.668Z,99.96
2022-08-09T01:50:29.994Z,97.85
2022-08-09T01:53:19.324Z,96.10
2022-08-09T01:55:47.681Z,96.31
2022-08-09T01:58:16.006Z,96.26
2022-08-09T02:00:46.011Z,96.35
2022-08-09T02:03:15.439Z,96.29
2022-08-09T02:05:53.610Z,96.52
2022-08-09T02:08:39.346Z,97.18
2022-08-09T02:11:20.113Z,97.16
2022-08-09T02:14:06.586Z,97.51
2022-08-09T02:16:59.307Z,98.20
2022-08-09T02:19:24.074Z,99.02
2022-08-09T02:22:08.397Z,99.15
2022-08-09T02:24:37.941Z,98.87
2022-08-09T02:27:09.640Z,98.48
2022-08-09T02:29:43.376Z,99.47
2022-08-09T02:32:12.530Z,99.33
2022-08-09T02:34:52.031Z,99.13
2022-08-09T02:37:31.747Z,98.34
2022-08-09T02:40:09.447Z,98.09
2022-08-09T02:42:39.614Z,98.07
2022-08-09T02:45:12.335Z,97.86
2022-08-09T02:47:57.674Z,97.79
2022-08-09T02:50:31.052Z,98.88
2022-08-09T02:53:03.770Z,99.24
2022-08-09T02:55:46.193Z,98.83
2022-08-09T02:58:36.062Z,99.14
2022-08-09T03:01:07.965Z,99.09
2022-08-09T03:04:16.553Z,98.93
2022-08-09T03:06:27.686Z,98.53
2022-08-09T03:08:55.783Z,98.18
2022-08-09T03:12:04.442Z,98.73
2022-08-09T03:14:11.871Z,99.08
2022-08-09T03:16:45.236Z,99.72
2022-08-09T03:19:57.812Z,99.54
2022-08-09T03:22:05.362Z,99.17
2022-08-09T03:24:51.889Z,99.08
2022-08-09T03:27:21.611Z,100.00
2022-08-09T03:29:57.603Z,100.00
2022-08-09T03:32:31.438Z,100.00
2022-08-09T03:34:59.564Z,100.00
2022-08-09T03:37:56.492Z,100.00
2022-08-09T03:40:16.983Z,100.00
2022-08-09T03:42:45.556Z,100.00
2022-08-09T03:45:13.660Z,100.00
2022-08-09T03:47:46.418Z,100.00
2022-08-09T03:50:18.822Z,100.00
2022-08-09T03:52:57.943Z,100.00
2022-08-09T03:55:26.637Z,100.00
2022-08-09T03:58:06.263Z,100.00
2022-08-09T04:00:42.946Z,100.00
2022-08-09T04:03:11.820Z,100.00
2022-08-09T04:05:46.736Z,100.00
2022-08-09T04:08:13.317Z,100.00
2022-08-09T04:10:40.027Z,99.83
2022-08-09T04:13:11.510Z,99.91
2022-08-09T04:16:17.563Z,100.00
2022-08-09T04:18:25.798Z,100.00
2022-08-09T04:20:55.490Z,100.00
2022-08-09T04:23:24.896Z,100.00
2022-08-09T04:25:54.304Z,100.00
2022-08-09T04:28:34.293Z,100.00
2022-08-09T04:31:08.093Z,100.00
2022-08-09T04:33:52.429Z,100.00
2022-08-09T04:36:21.414Z,100.00
2022-08-09T04:38:50.146Z,100.00
2022-08-09T04:41:16.703Z,100.00
2022-08-09T04:43:53.803Z,100.00
2022-08-09T04:46:37.793Z,100.00
2022-08-09T04:49:17.604Z,100.00
2022-08-09T04:51:59.103Z,100.00
2022-08-09T04:54:25.909Z,100.00
2022-08-09T04:56:52.791Z,100.00
2022-08-09T04:59:22.625Z,100.00
2022-08-09T05:01:49.419Z,100.00
2022-08-09T05:04:19.363Z,100.00
2022-08-09T05:06:46.049Z,100.00
2022-08-09T05:09:17.491Z,100.00
2022-08-09T05:11:44.354Z,100.00
2022-08-09T05:14:10.940Z,100.00
2022-08-09T05:16:58.185Z,100.00
2022-08-09T05:19:44.675Z,100.00
2022-08-09T05:23:50.409Z,100.00
2022-08-09T05:25:01.101Z,100.00
2022-08-09T05:27:31.054Z,100.00
2022-08-09T05:29:57.809Z,100.00
2022-08-09T05:32:26.144Z,100.00
2022-08-09T05:34:56.824Z,100.00
2022-08-09T05:37:23.820Z,100.00
2022-08-09T05:39:52.402Z,100.00
2022-08-09T05:42:21.526Z,100.00
2022-08-09T05:44:52.168Z,100.00
2022-08-09T05:47:21.513Z,100.00
2022-08-09T05:50:25.156Z,100.00
2022-08-09T05:52:36.189Z,100.00
2022-08-09T05:55:07.190Z,100.00
2022-08-09T05:57:55.120Z,100.00
2022-08-09T06:00:22.528Z,100.00
2022-08-09T06:02:49.355Z,100.00
2022-08-09T06:05:50.144Z,100.00
2022-08-09T06:08:09.076Z,100.00
2022-08-09T06:10:38.593Z,100.00
2022-08-09T06:13:18.594Z,100.00
2022-08-09T06:15:51.561Z,100.00
2022-08-09T06:18:25.273Z,100.00
2022-08-09T06:20:57.803Z,100.00
2022-08-09T06:23:58.634Z,100.00
2022-08-09T06:26:14.499Z,100.00
2022-08-09T06:28:43.252Z,100.00
2022-08-09T06:31:10.567Z,100.00
2022-08-09T06:33:41.715Z,100.00
2022-08-09T06:36:11.863Z,99.21
2022-08-09T06:38:42.988Z,99.91
2022-08-09T06:41:18.827Z,97.55
2022-08-09T06:43:47.157Z,96.73
2022-08-09T06:46:39.065Z,95.80
2022-08-09T06:49:01.451Z,96.43
2022-08-09T06:51:29.202Z,95.52
2022-08-09T06:54:01.052Z,93.63
2022-08-09T06:56:30.927Z,94.64
2022-08-09T07:00:48.977Z,94.13
2022-08-09T07:01:54.423Z,93.57
2022-08-09T07:04:30.460Z,94.73
2022-08-09T07:07:00.373Z,95.33
2022-08-09T07:09:55.439Z,95.50
2022-08-09T07:12:17.419Z,92.67
2022-08-09T07:14:51.461Z,93.92
2022-08-09T07:17:19.905Z,91.60
2022-08-09T07:19:48.097Z,90.72
2022-08-09T07:22:18.314Z,91.32
2022-08-09T07:24:49.647Z,87.59
2022-08-09T07:27:27.153Z,91.03
2022-08-09T07:30:02.623Z,90.29
2022-08-09T07:32:33.195Z,88.85
2022-08-09T07:35:08.014Z,90.62
2022-08-09T07:37:43.649Z,86.98
2022-08-09T07:40:17.451Z,87.93
2022-08-09T07:42:54.524Z,86.58
2022-08-09T07:45:37.445Z,85.82
2022-08-09T07:48:08.172Z,86.80
2022-08-09T07:50:53.132Z,83.27
2022-08-09T07:54:04.522Z,82.67
2022-08-09T07:56:27.272Z,84.25
2022-08-09T07:58:54.824Z,82.11
2022-08-09T08:01:21.762Z,81.27
2022-08-09T08:03:55.403Z,83.04
2022-08-09T08:06:22.478Z,81.59
2022-08-09T08:09:04.532Z,80.89
2022-08-09T08:12:25.170Z,78.24
2022-08-09T08:14:18.593Z,80.04
2022-08-09T08:17:00.373Z,79.13
2022-08-09T08:19:33.966Z,74.09
2022-08-09T08:22:02.127Z,74.57
2022-08-09T08:24:34.339Z,73.90
2022-08-09T08:27:16.735Z,73.79
2022-08-09T08:29:48.807Z,72.08
2022-08-09T08:32:18.927Z,70.34
2022-08-09T08:34:52.039Z,70.52
2022-08-09T08:37:22.038Z,68.32
2022-08-09T08:39:51.821Z,68.45
2022-08-09T08:42:18.553Z,63.44
2022-08-09T08:44:57.801Z,60.93
2022-08-09T08:47:27.584Z,61.80
2022-08-09T08:49:57.472Z,63.03
2022-08-09T08:55:23.251Z,60.29
2022-08-09T08:57:57.541Z,58.37
2022-08-09T09:00:29.837Z,61.05
2022-08-09T09:03:08.835Z,56.88
2022-08-09T09:06:00.909Z,57.86
2022-08-09T09:08:38.061Z,56.72
2022-08-09T09:11:13.630Z,54.49
2022-08-09T09:13:55.904Z,56.69
2022-08-09T09:16:30.341Z,57.90
2022-08-09T09:22:07.715Z,56.62
2022-08-09T09:24:49.102Z,54.24
2022-08-09T09:28:03.314Z,55.11
2022-08-09T09:30:40.220Z,57.65
2022-08-09T09:33:16.851Z,55.74
2022-08-09T09:36:03.671Z,55.11
2022-08-09T09:38:48.543Z,54.93
2022-08-09T09:41:32.508Z,57.10
2022-08-09T09:44:11.088Z,54.95
2022-08-09T09:46:45.614Z,56.02
2022-08-09T09:49:18.954Z,52.89
2022-08-09T09:52:02.535Z,53.61
2022-08-09T09:54:37.977Z,52.73
2022-08-09T09:58:03.859Z,53.69
2022-08-09T10:00:26.430Z,52.66
2022-08-09T10:02:53.555Z,53.54
2022-08-09T10:05:27.119Z,51.93
2022-08-09T10:08:25.952Z,52.28
2022-08-09T10:10:54.985Z,52.83
2022-08-09T10:13:42.824Z,52.36
2022-08-09T10:16:58.313Z,52.58
2022-08-09T10:18:59.983Z,51.44
2022-08-09T10:21:27.642Z,52.08
2022-08-09T10:23:56.448Z,54.44
2022-08-09T10:26:26.703Z,52.50
2022-08-09T10:29:20.973Z,52.83
2022-08-09T10:34:32.764Z,51.56
2022-08-09T10:37:01.235Z,51.88
2022-08-09T10:39:29.567Z,51.42
2022-08-09T10:41:56.219Z,52.38
2022-08-09T10:44:26.244Z,53.33
2022-08-09T10:48:19.518Z,53.66
2022-08-09T10:50:30.730Z,52.77
2022-08-09T10:53:05.561Z,55.39
2022-08-09T10:55:58.538Z,53.62
2022-08-09T10:58:33.793Z,52.71
2022-08-09T11:03:06.875Z,53.11
2022-08-09T11:04:29.636Z,51.46
2022-08-09T11:06:59.770Z,52.41
2022-08-09T11:09:47.727Z,53.24
2022-08-09T11:12:20.273Z,51.14
2022-08-09T11:14:54.452Z,53.07
2022-08-09T11:17:22.696Z,52.26
2022-08-09T11:20:11.909Z,52.64
2022-08-09T11:22:58.412Z,49.90
2022-08-09T11:25:47.449Z,51.81
2022-08-09T11:28:35.183Z,50.04
2022-08-09T11:31:43.410Z,49.10
2022-08-09T11:34:24.859Z,49.93
2022-08-09T11:36:51.794Z,52.17
2022-08-09T11:39:18.602Z,50.69
2022-08-09T11:41:46.709Z,50.74
2022-08-09T11:44:15.728Z,49.91
2022-08-09T11:47:00.801Z,50.01
2022-08-09T11:50:52.179Z,50.15
2022-08-09T11:53:15.990Z,50.50
2022-08-09T11:55:52.369Z,50.75
2022-08-09T11:58:30.350Z,48.43
2022-08-09T12:01:08.573Z,49.59
2022-08-09T12:03:56.067Z,49.33
2022-08-09T12:06:32.596Z,50.16
2022-08-09T12:09:05.906Z,49.42
2022-08-09T12:12:02.647Z,47.61
2022-08-09T12:14:40.777Z,48.75
2022-08-09T12:17:27.502Z,50.34
2022-08-09T12:20:12.346Z,51.51
2022-08-09T12:22:44.847Z,48.44
2022-08-09T12:25:15.200Z,49.27
2022-08-09T12:29:12.463Z,50.14
2022-08-09T12:30:36.731Z,51.16
2022-08-09T12:33:05.652Z,49.88
2022-08-09T12:35:41.057Z,50.95
2022-08-09T12:38:29.621Z,49.87
2022-08-09T12:41:04.347Z,48.92
2022-08-09T12:44:05.673Z,48.58
2022-08-09T12:46:21.718Z,48.43
2022-08-09T12:48:52.207Z,49.82
2022-08-09T12:51:52.294Z,47.50
2022-08-09T12:54:08.229Z,49.38
2022-08-09T12:56:51.240Z,47.93
2022-08-09T12:59:22.963Z,48.00
2022-08-09T13:02:09.302Z,47.05
2022-08-09T13:04:38.567Z,47.27
2022-08-09T13:07:14.083Z,47.55
2022-08-09T13:09:43.222Z,47.69
2022-08-09T13:12:10.254Z,47.49
2022-08-09T13:14:47.342Z,49.00
2022-08-09T13:17:43.926Z,48.28
2022-08-09T13:20:14.288Z,47.63
2022-08-09T13:23:01.306Z,47.86
2022-08-09T13:25:52.806Z,47.33
2022-08-09T13:28:34.627Z,46.38
2022-08-09T13:32:13.750Z,45.22
2022-08-09T13:33:54.651Z,47.83
2022-08-09T13:36:38.449Z,50.25
2022-08-09T13:41:17.151Z,46.31
2022-08-09T13:42:14.014Z,46.62
2022-08-09T13:44:43.195Z,45.75
2022-08-09T13:47:27.737Z,48.55
2022-08-09T13:50:02.773Z,47.67
2022-08-09T13:52:30.873Z,46.12
2022-08-09T13:55:00.843Z,46.69
2022-08-09T13:57:35.492Z,46.96
2022-08-09T14:00:12.752Z,45.70
2022-08-09T14:02:42.596Z,49.20
2022-08-09T14:05:57.013Z,46.24
2022-08-09T14:08:17.301Z,51.49
2022-08-09T14:10:50.492Z,48.38
2022-08-09T14:14:14.896Z,48.52
2022-08-09T14:16:13.720Z,49.04
2022-08-09T14:18:45.347Z,45.71
2022-08-09T14:21:17.600Z,46.63
2022-08-09T14:23:54.725Z,48.35
2022-08-09T14:26:25.287Z,47.20
2022-08-09T14:28:52.250Z,46.41
2022-08-09T14:31:19.079Z,48.23
2022-08-09T14:33:52.212Z,46.33
2022-08-09T14:36:21.509Z,47.08
2022-08-09T14:38:52.496Z,47.46
2022-08-09T14:41:39.692Z,48.23
2022-08-09T14:44:09.564Z,50.38
2022-08-09T14:47:04.674Z,48.96
2022-08-09T14:49:26.278Z,47.83
2022-08-09T14:51:58.833Z,48.24
2022-08-09T14:54:27.854Z,46.56
2022-08-09T14:56:57.948Z,46.51
2022-08-09T14:59:27.391Z,45.60
2022-08-09T15:01:55.902Z,47.86
2022-08-09T15:04:23.610Z,49.00
2022-08-09T15:06:51.610Z,48.08
2022-08-09T15:10:03.105Z,47.39
2022-08-09T15:12:07.841Z,48.06
2022-08-09T15:14:38.512Z,46.83
2022-08-09T15:17:09.595Z,48.80
2022-08-09T15:19:37.054Z,47.34
2022-08-09T15:22:26.168Z,46.65
2022-08-09T15:24:53.582Z,50.48
2022-08-09T15:27:21.463Z,48.91
2022-08-09T15:30:56.876Z,48.38
2022-08-09T15:32:35.566Z,48.53
2022-08-09T15:35:02.387Z,48.81
2022-08-09T15:37:56.794Z,48.36
2022-08-09T15:40:33.842Z,48.05
2022-08-09T15:43:01.941Z,46.19
2022-08-09T15:45:30.076Z,50.01
2022-08-09T15:48:05.137Z,49.11
2022-08-09T15:50:34.691Z,48.63
2022-08-09T15:53:17.814Z,46.13
2022-08-09T15:56:04.681Z,47.38
2022-08-09T15:58:33.017Z,46.13
2022-08-09T16:00:59.792Z,46.77
2022-08-09T16:03:38.364Z,46.43
2022-08-09T16:06:32.673Z,45.40
2022-08-09T16:08:56.127Z,45.84
2022-08-09T16:11:22.973Z,47.47
2022-08-09T16:14:04.046Z,49.77
2022-08-09T16:16:37.185Z,49.45
2022-08-09T16:19:06.222Z,49.52
2022-08-09T16:21:35.767Z,50.00
2022-08-09T16:24:04.810Z,49.72
2022-08-09T16:26:34.456Z,49.70
2022-08-09T16:29:10.407Z,48.90
2022-08-09T16:32:19.293Z,50.18
2022-08-09T16:34:54.447Z,48.92
2022-08-09T16:37:18.440Z,49.18
2022-08-09T16:39:54.854Z,52.31
2022-08-09T16:42:33.523Z,53.70
2022-08-09T16:45:00.196Z,51.58
2022-08-09T16:48:38.160Z,54.11
2022-08-09T16:50:30.042Z,54.03
2022-08-09T16:52:59.952Z,54.15
2022-08-09T16:55:26.599Z,54.29
2022-08-09T16:58:10.113Z,55.84
2022-08-09T17:00:38.765Z,54.37
2022-08-09T17:03:21.135Z,54.17
2022-08-09T17:06:08.308Z,54.64
2022-08-09T17:09:02.795Z,54.03
2022-08-09T17:11:40.239Z,55.38
2022-08-09T17:14:26.312Z,56.34
2022-08-09T17:16:56.890Z,55.73
2022-08-09T17:19:27.728Z,55.31
2022-08-09T17:22:14.522Z,55.56
2022-08-09T17:24:41.394Z,56.56
2022-08-09T17:27:15.498Z,56.40
2022-08-09T17:29:45.530Z,55.55
2022-08-09T17:32:15.754Z,55.39
2022-08-09T17:35:07.388Z,54.58
2022-08-09T17:37:29.901Z,54.90
2022-08-09T17:39:56.794Z,56.62
2022-08-09T17:42:42.030Z,55.90
2022-08-09T17:45:23.709Z,55.35
2022-08-09T17:48:02.491Z,56.18
2022-08-09T17:50:37.167Z,58.14
2022-08-09T17:53:19.288Z,56.18
2022-08-09T17:55:50.220Z,56.11
2022-08-09T17:58:19.171Z,56.66
2022-08-09T18:00:48.083Z,56.90
2022-08-09T18:03:15.381Z,56.58
2022-08-09T18:05:44.745Z,56.49
2022-08-09T18:08:13.363Z,56.58
2022-08-09T18:10:45.963Z,57.60
2022-08-09T18:13:39.591Z,58.34
2022-08-09T18:16:09.011Z,59.26
2022-08-09T18:18:43.293Z,62.00
2022-08-09T18:21:23.011Z,62.39
2022-08-09T18:24:09.886Z,62.82
2022-08-09T18:26:46.609Z,62.90
2022-08-09T18:30:42.689Z,61.25
2022-08-09T18:32:03.090Z,63.51
2022-08-09T18:34:31.820Z,63.89
2022-08-09T18:36:58.720Z,61.92
2022-08-09T18:39:31.923Z,62.11
2022-08-09T18:42:01.056Z,61.54
2022-08-09T18:44:27.880Z,63.01
2022-08-09T18:47:07.839Z,62.73
2022-08-09T18:49:41.414Z,61.53
2022-08-09T18:52:12.117Z,62.72
2022-08-09T18:54:49.780Z,64.84
2022-08-09T18:57:22.133Z,65.75
2022-08-09T18:59:54.381Z,66.45
2022-08-09T19:02:30.566Z,66.38
2022-08-09T19:05:14.237Z,66.30
2022-08-09T19:07:59.015Z,66.31
2022-08-09T19:10:29.049Z,65.86
2022-08-09T19:13:18.417Z,66.81
2022-08-09T19:15:49.846Z,65.72
2022-08-09T19:18:33.524Z,66.49
2022-08-09T19:21:09.757Z,66.19
2022-08-09T19:24:39.488Z,65.62
2022-08-09T19:26:31.152Z,66.38
2022-08-09T19:29:01.764Z,66.14
2022-08-09T19:31:44.359Z,66.23
2022-08-09T19:34:21.302Z,66.69
2022-08-09T19:36:50.472Z,67.45
2022-08-09T19:39:17.137Z,67.33
2022-08-09T19:41:47.334Z,67.48
2022-08-09T19:44:17.644Z,67.66
2022-08-09T19:46:50.752Z,68.25
2022-08-09T19:50:07.978Z,67.70
2022-08-09T19:52:10.079Z,67.37
2022-08-09T19:54:42.836Z,67.97
2022-08-09T19:57:10.231Z,67.97
2022-08-09T19:59:58.619Z,67.15
2022-08-09T20:04:12.414Z,66.54
2022-08-09T20:05:16.634Z,65.96
2022-08-09T20:07:58.934Z,67.17
2022-08-09T20:10:36.566Z,67.18
2022-08-09T20:13:06.398Z,67.96
2022-08-09T20:16:37.772Z,67.84
2022-08-09T20:18:22.524Z,67.01
2022-08-09T20:20:51.330Z,67.75
2022-08-09T20:23:23.636Z,68.05
2022-08-09T20:25:52.207Z,69.01
2022-08-09T20:28:27.716Z,68.77
2022-08-09T20:31:02.579Z,68.77
2022-08-09T20:33:39.118Z,68.81
2022-08-09T20:36:08.754Z,69.29
2022-08-09T20:38:52.778Z,69.21
2022-08-09T20:41:32.209Z,68.88
2022-08-09T20:44:03.229Z,69.07
2022-08-09T20:46:42.649Z,69.27
2022-08-09T20:49:12.430Z,69.37
2022-08-09T20:51:40.875Z,68.85
2022-08-09T20:54:12.631Z,69.02
2022-08-09T20:56:43.968Z,69.65
2022-08-09T20:59:17.252Z,69.51
2022-08-09T21:01:50.660Z,69.75
2022-08-09T21:05:53.510Z,70.06
2022-08-09T21:07:12.565Z,70.13
2022-08-09T21:09:56.670Z,70.03
2022-08-09T21:15:16.197Z,70.76
2022-08-09T21:18:24.061Z,71.23
2022-08-09T21:20:31.404Z,71.41
2022-08-09T21:22:59.326Z,72.60
2022-08-09T21:25:44.234Z,72.43
2022-08-09T21:28:34.656Z,72.77
2022-08-09T21:31:16.529Z,73.99
2022-08-09T21:33:50.523Z,72.79
2022-08-09T21:36:19.115Z,73.69
2022-08-09T21:38:45.746Z,73.16
2022-08-09T21:41:53.441Z,73.06
2022-08-09T21:44:10.116Z,74.02
2022-08-09T21:46:36.704Z,74.27
2022-08-09T21:49:03.834Z,74.02
2022-08-09T21:51:36.340Z,74.50
2022-08-09T21:54:10.645Z,75.25
2022-08-09T21:56:44.627Z,77.36
2022-08-09T21:59:23.269Z,76.78
2022-08-09T22:02:00.247Z,77.05
2022-08-09T22:04:55.311Z,77.34
2022-08-09T22:07:35.256Z,76.98
2022-08-09T22:10:03.482Z,75.28
2022-08-09T22:12:31.369Z,76.73
2022-08-09T22:14:58.740Z,77.27
2022-08-09T22:17:25.798Z,76.33
2022-08-09T22:19:59.811Z,76.96
2022-08-09T22:22:28.463Z,77.80
2022-08-09T22:26:05.335Z,77.80
2022-08-09T22:27:41.605Z,78.14
2022-08-09T22:30:09.851Z,78.02
2022-08-09T22:32:37.220Z,78.53
2022-08-09T22:35:06.658Z,78.63
2022-08-09T22:37:39.953Z,78.97
2022-08-09T22:40:07.876Z,79.76
2022-08-09T22:42:34.538Z,78.85
2022-08-09T22:48:11.601Z,78.93
2022-08-09T22:48:14.693Z,79.63
2022-08-09T22:50:34.784Z,80.95
2022-08-09T22:53:03.321Z,80.95
2022-08-09T22:56:06.455Z,80.90
2022-08-09T22:58:20.258Z,80.65
2022-08-09T23:00:57.976Z,80.05
2022-08-09T23:04:02.912Z,80.33
2022-08-09T23:06:14.137Z,81.40
2022-08-09T23:08:44.360Z,81.38
2022-08-09T23:11:20.407Z,81.20
2022-08-09T23:13:50.185Z,81.57
2022-08-09T23:16:19.058Z,81.82
2022-08-09T23:18:45.740Z,82.54
2022-08-09T23:21:14.710Z,82.20
2022-08-09T23:24:06.627Z,81.98
2022-08-09T23:26:34.881Z,82.36
2022-08-09T23:29:01.558Z,82.75
2022-08-09T23:31:28.195Z,82.26
2022-08-09T23:33:54.853Z,82.14
2022-08-09T23:36:21.441Z,81.95
2022-08-09T23:38:48.457Z,82.79
2022-08-09T23:41:28.802Z,84.31
2022-08-09T23:43:58.743Z,86.03
2022-08-09T23:46:25.637Z,86.13
2022-08-09T23:48:52.273Z,85.93
2022-08-09T23:51:19.130Z,85.94
2022-08-09T23:53:45.801Z,85.46
2022-08-09T23:56:16.394Z,85.15
2022-08-09T23:58:44.810Z,85.42
